Time,TemperatureF,DewpointF,PressureIn,WindDirection,WindDirectionDegrees,WindSpeedMPH,WindSpeedGustMPH,Humidity,HourlyPrecipIn,Conditions,Clouds,dailyrainin,SoftwareType,DateUTC
2013-01-20 00:03:00,33.3,29.6,30.23,West,281,0.0,0.0,86,0.00,,---,0.00,VWS V14.01,2013-01-20 08:03:00,
2013-01-20 00:08:00,33.2,29.5,30.23,West,281,0.0,0.0,86,0.00,,---,0.00,VWS V14.01,2013-01-20 08:08:00,
2013-01-20 00:13:00,33.0,29.3,30.22,West,281,0.0,0.0,86,0.00,,---,0.00,VWS V14.01,2013-01-20 08:13:00,
2013-01-20 00:18:00,32.8,29.4,30.23,West,281,0.0,0.0,87,0.00,,---,0.00,VWS V14.01,2013-01-20 08:18:00,
2013-01-20 00:23:00,32.6,29.2,30.23,West,281,0.0,0.0,87,0.00,,---,0.00,VWS V14.01,2013-01-20 08:23:00,
2013-01-20 00:28:00,32.6,29.2,30.22,West,281,0.0,0.0,87,0.00,,---,0.00,VWS V14.01,2013-01-20 08:28:00,
2013-01-20 00:33:00,32.4,29.0,30.23,West,281,0.0,0.0,87,0.00,,---,0.00,VWS V14.01,2013-01-20 08:33:00,
2013-01-20 00:38:00,32.3,28.9,30.23,West,281,0.0,0.0,87,0.00,,---,0.00,VWS V14.01,2013-01-20 08:38:00,
2013-01-20 00:43:00,32.3,28.9,30.22,West,281,0.0,0.0,87,0.00,,---,0.00,VWS V14.01,2013-01-20 08:43:00,
2013-01-20 00:48:00,32.2,28.8,30.22,West,281,0.0,0.0,87,0.00,,---,0.00,VWS V14.01,2013-01-20 08:48:00,
2013-01-20 00:53:00,32.1,28.7,30.22,West,281,0.0,0.0,87,0.00,,---,0.00,VWS V14.01,2013-01-20 08:53:00,
2013-01-20 00:58:00,32.0,28.6,30.22,West,281,0.0,0.0,87,0.00,,---,0.00,VWS V14.01,2013-01-20 08:58:00,
2013-01-20 01:03:00,31.8,28.4,30.22,West,281,0.0,0.0,87,0.00,,---,0.00,VWS V14.01,2013-01-20 09:03:00,
2013-01-20 01:08:00,31.7,28.3,30.22,West,281,0.0,0.0,87,0.00,,---,0.00,VWS V14.01,2013-01-20 09:08:00,
2013-01-20 01:13:00,31.6,28.2,30.22,West,281,0.0,0.0,87,0.00,,---,0.00,VWS V14.01,2013-01-20 09:13:00,
2013-01-20 01:18:00,31.5,28.1,30.22,West,281,0.0,0.0,87,0.00,,---,0.00,VWS V14.01,2013-01-20 09:18:00,
2013-01-20 01:23:00,31.4,28.3,30.22,West,281,0.0,0.0,88,0.00,,---,0.00,VWS V14.01,2013-01-20 09:23:00,
2013-01-20 01:28:00,31.4,28.3,30.22,West,281,0.0,0.0,88,0.00,,---,0.00,VWS V14.01,2013-01-20 09:28:00,
2013-01-20 01:33:00,31.3,27.9,30.22,West,281,0.0,0.0,87,0.00,,---,0.00,VWS V14.01,2013-01-20 09:33:00,
2013-01-20 01:38:00,31.2,28.1,30.22,West,281,0.0,0.0,88,0.00,,---,0.00,VWS V14.01,2013-01-20 09:38:00,
2013-01-20 01:43:00,31.2,28.1,30.22,West,281,0.0,0.0,88,0.00,,---,0.00,VWS V14.01,2013-01-20 09:43:00,
2013-01-20 01:48:00,31.1,28.0,30.22,West,281,0.0,0.0,88,0.00,,---,0.00,VWS V14.01,2013-01-20 09:48:00,
2013-01-20 01:53:00,31.0,27.9,30.22,West,281,0.0,0.0,88,0.00,,---,0.00,VWS V14.01,2013-01-20 09:53:00,
2013-01-20 01:58:00,30.9,27.8,30.22,West,281,0.0,0.0,88,0.00,,---,0.00,VWS V14.01,2013-01-20 09:58:00,
2013-01-20 02:03:00,30.8,27.7,30.22,West,281,0.0,0.0,88,0.00,,---,0.00,VWS V14.01,2013-01-20 10:03:00,
2013-01-20 02:08:00,30.7,27.6,30.22,West,281,0.0,0.0,88,0.00,,---,0.00,VWS V14.01,2013-01-20 10:08:00,
2013-01-20 02:13:00,30.6,27.5,30.22,West,281,0.0,0.0,88,0.00,,---,0.00,VWS V14.01,2013-01-20 10:13:00,
2013-01-20 02:18:00,30.5,27.4,30.23,West,281,0.0,0.0,88,0.00,,---,0.00,VWS V14.01,2013-01-20 10:18:00,
2013-01-20 02:23:00,30.3,27.2,30.23,West,281,0.0,0.0,88,0.00,,---,0.00,VWS V14.01,2013-01-20 10:23:00,
2013-01-20 02:28:00,30.3,27.2,30.23,West,281,0.0,0.0,88,0.00,,---,0.00,VWS V14.01,2013-01-20 10:28:00,
2013-01-20 02:33:00,30.2,27.4,30.23,West,281,0.0,0.0,89,0.00,,---,0.00,VWS V14.01,2013-01-20 10:33:00,
2013-01-20 02:38:00,30.1,27.3,30.23,West,281,0.0,0.0,89,0.00,,---,0.00,VWS V14.01,2013-01-20 10:38:00,
2013-01-20 02:43:00,30.1,27.3,30.23,West,281,0.0,0.0,89,0.00,,---,0.00,VWS V14.01,2013-01-20 10:43:00,
2013-01-20 02:48:00,30.1,27.3,30.23,West,281,0.0,0.0,89,0.00,,---,0.00,VWS V14.01,2013-01-20 10:48:00,
2013-01-20 02:53:00,30.0,27.2,30.23,West,281,0.0,0.0,89,0.00,,---,0.00,VWS V14.01,2013-01-20 10:53:00,
2013-01-20 02:58:00,29.9,27.1,30.23,West,281,0.0,0.0,89,0.00,,---,0.00,VWS V14.01,2013-01-20 10:58:00,
2013-01-20 03:03:00,29.9,27.1,30.23,West,281,0.0,0.0,89,0.00,,---,0.00,VWS V14.01,2013-01-20 11:03:00,
2013-01-20 03:07:00,29.7,26.9,30.23,West,281,0.0,0.0,89,0.00,,---,0.00,VWS V14.01,2013-01-20 11:07:00,
2013-01-20 03:12:00,29.6,26.8,30.23,West,281,0.0,0.0,89,0.00,,---,0.00,VWS V14.01,2013-01-20 11:12:00,
2013-01-20 03:17:00,29.6,26.8,30.23,West,281,0.0,0.0,89,0.00,,---,0.00,VWS V14.01,2013-01-20 11:17:00,
2013-01-20 03:22:00,29.4,26.6,30.23,West,281,0.0,0.0,89,0.00,,---,0.00,VWS V14.01,2013-01-20 11:22:00,
2013-01-20 03:27:00,29.3,26.5,30.22,West,281,0.0,0.0,89,0.00,,---,0.00,VWS V14.01,2013-01-20 11:27:00,
2013-01-20 03:32:00,29.2,26.4,30.22,West,281,0.0,0.0,89,0.00,,---,0.00,VWS V14.01,2013-01-20 11:32:00,
2013-01-20 03:37:00,29.2,26.4,30.22,West,281,0.0,0.0,89,0.00,,---,0.00,VWS V14.01,2013-01-20 11:37:00,
2013-01-20 03:42:00,29.2,26.4,30.23,West,281,0.0,0.0,89,0.00,,---,0.00,VWS V14.01,2013-01-20 11:42:00,
2013-01-20 03:47:00,29.1,26.3,30.22,West,281,0.0,0.0,89,0.00,,---,0.00,VWS V14.01,2013-01-20 11:47:00,
2013-01-20 03:52:00,29.1,26.5,30.22,West,281,0.0,0.0,90,0.00,,---,0.00,VWS V14.01,2013-01-20 11:52:00,
2013-01-20 03:57:00,29.1,26.5,30.22,West,281,0.0,0.0,90,0.00,,---,0.00,VWS V14.01,2013-01-20 11:57:00,
2013-01-20 04:02:00,29.0,26.4,30.22,West,281,0.0,0.0,90,0.00,,---,0.00,VWS V14.01,2013-01-20 12:02:00,
2013-01-20 04:07:00,29.1,26.5,30.22,West,281,0.0,0.0,90,0.00,,---,0.00,VWS V14.01,2013-01-20 12:07:00,
2013-01-20 04:12:00,29.1,26.5,30.22,West,281,0.0,0.0,90,0.00,,---,0.00,VWS V14.01,2013-01-20 12:12:00,
2013-01-20 04:17:00,28.9,26.3,30.22,West,281,0.0,0.0,90,0.00,,---,0.00,VWS V14.01,2013-01-20 12:17:00,
2013-01-20 04:22:00,28.8,26.2,30.22,West,281,0.0,0.0,90,0.00,,---,0.00,VWS V14.01,2013-01-20 12:22:00,
2013-01-20 04:27:00,28.8,26.2,30.22,West,281,0.0,0.0,90,0.00,,---,0.00,VWS V14.01,2013-01-20 12:27:00,
2013-01-20 04:32:00,28.8,26.2,30.22,West,281,0.0,0.0,90,0.00,,---,0.00,VWS V14.01,2013-01-20 12:32:00,
2013-01-20 04:37:00,28.8,26.2,30.22,West,281,0.0,0.0,90,0.00,,---,0.00,VWS V14.01,2013-01-20 12:37:00,
2013-01-20 04:42:00,28.6,26.0,30.22,West,281,0.0,0.0,90,0.00,,---,0.00,VWS V14.01,2013-01-20 12:42:00,
2013-01-20 04:47:00,28.5,26.0,30.22,West,281,0.0,0.0,90,0.00,,---,0.00,VWS V14.01,2013-01-20 12:47:00,
2013-01-20 04:52:00,28.6,26.0,30.22,West,281,0.0,0.0,90,0.00,,---,0.00,VWS V14.01,2013-01-20 12:52:00,
2013-01-20 04:57:00,28.7,26.1,30.22,West,281,0.0,0.0,90,0.00,,---,0.00,VWS V14.01,2013-01-20 12:57:00,
2013-01-20 05:02:00,28.7,26.1,30.22,West,281,0.0,0.0,90,0.00,,---,0.00,VWS V14.01,2013-01-20 13:02:00,
2013-01-20 05:07:00,28.6,26.0,30.22,West,281,0.0,0.0,90,0.00,,---,0.00,VWS V14.01,2013-01-20 13:07:00,
2013-01-20 05:12:00,28.4,25.9,30.22,West,281,0.0,0.0,90,0.00,,---,0.00,VWS V14.01,2013-01-20 13:12:00,
2013-01-20 05:17:00,28.3,25.8,30.23,West,281,0.0,0.0,90,0.00,,---,0.00,VWS V14.01,2013-01-20 13:17:00,
2013-01-20 05:22:00,28.2,25.6,30.22,West,281,0.0,0.0,90,0.00,,---,0.00,VWS V14.01,2013-01-20 13:22:00,
2013-01-20 05:27:00,28.2,25.9,30.22,West,281,0.0,0.0,91,0.00,,---,0.00,VWS V14.01,2013-01-20 13:27:00,
2013-01-20 05:32:00,28.3,26.0,30.22,West,281,0.0,0.0,91,0.00,,---,0.00,VWS V14.01,2013-01-20 13:32:00,
2013-01-20 05:37:00,28.2,25.9,30.22,West,281,0.0,0.0,91,0.00,,---,0.00,VWS V14.01,2013-01-20 13:37:00,
2013-01-20 05:42:00,28.2,25.9,30.22,West,281,0.0,0.0,91,0.00,,---,0.00,VWS V14.01,2013-01-20 13:42:00,
2013-01-20 05:47:00,28.1,25.8,30.22,West,281,0.0,0.0,91,0.00,,---,0.00,VWS V14.01,2013-01-20 13:47:00,
2013-01-20 05:52:00,28.1,25.8,30.22,West,281,0.0,0.0,91,0.00,,---,0.00,VWS V14.01,2013-01-20 13:52:00,
2013-01-20 05:57:00,28.1,25.8,30.22,West,281,0.0,0.0,91,0.00,,---,0.00,VWS V14.01,2013-01-20 13:57:00,
2013-01-20 06:02:00,28.1,25.8,30.22,West,281,0.0,0.0,91,0.00,,---,0.00,VWS V14.01,2013-01-20 14:02:00,
2013-01-20 06:07:00,28.1,25.8,30.22,West,281,0.0,0.0,91,0.00,,---,0.00,VWS V14.01,2013-01-20 14:07:00,
2013-01-20 06:12:00,28.0,25.7,30.22,West,281,0.0,0.0,91,0.00,,---,0.00,VWS V14.01,2013-01-20 14:12:00,
2013-01-20 06:17:00,27.9,25.6,30.22,West,281,0.0,0.0,91,0.00,,---,0.00,VWS V14.01,2013-01-20 14:17:00,
2013-01-20 06:22:00,27.8,25.5,30.22,West,281,0.0,0.0,91,0.00,,---,0.00,VWS V14.01,2013-01-20 14:22:00,
2013-01-20 06:27:00,27.8,25.5,30.22,West,281,0.0,0.0,91,0.00,,---,0.00,VWS V14.01,2013-01-20 14:27:00,
2013-01-20 06:32:00,27.8,25.5,30.22,West,281,0.0,0.0,91,0.00,,---,0.00,VWS V14.01,2013-01-20 14:32:00,
2013-01-20 06:37:00,27.7,25.4,30.22,West,281,0.0,0.0,91,0.00,,---,0.00,VWS V14.01,2013-01-20 14:37:00,
2013-01-20 06:42:00,27.6,25.3,30.22,West,281,0.0,0.0,91,0.00,,---,0.00,VWS V14.01,2013-01-20 14:42:00,
2013-01-20 06:47:00,27.6,25.3,30.22,West,281,0.0,0.0,91,0.00,,---,0.00,VWS V14.01,2013-01-20 14:47:00,
2013-01-20 06:52:00,27.5,25.2,30.22,West,281,0.0,0.0,91,0.00,,---,0.00,VWS V14.01,2013-01-20 14:52:00,
2013-01-20 06:57:00,27.4,25.1,30.22,West,281,0.0,0.0,91,0.00,,---,0.00,VWS V14.01,2013-01-20 14:57:00,
2013-01-20 07:02:00,27.4,25.1,30.22,West,281,0.0,0.0,91,0.00,,---,0.00,VWS V14.01,2013-01-20 15:02:00,
2013-01-20 07:07:00,27.3,25.0,30.22,West,281,0.0,0.0,91,0.00,,---,0.00,VWS V14.01,2013-01-20 15:07:00,
2013-01-20 07:12:00,27.3,25.0,30.23,West,281,0.0,0.0,91,0.00,,---,0.00,VWS V14.01,2013-01-20 15:12:00,
2013-01-20 07:17:00,27.2,24.9,30.23,West,281,0.0,0.0,91,0.00,,---,0.00,VWS V14.01,2013-01-20 15:17:00,
2013-01-20 07:22:00,27.3,25.0,30.22,West,281,0.0,0.0,91,0.00,,---,0.00,VWS V14.01,2013-01-20 15:22:00,
2013-01-20 07:27:00,27.3,25.0,30.22,West,281,0.0,0.0,91,0.00,,---,0.00,VWS V14.01,2013-01-20 15:27:00,
2013-01-20 07:32:00,27.3,25.3,30.22,West,281,0.0,0.0,92,0.00,,---,0.00,VWS V14.01,2013-01-20 15:32:00,
2013-01-20 07:37:00,27.3,25.3,30.22,West,281,0.0,0.0,92,0.00,,---,0.00,VWS V14.01,2013-01-20 15:37:00,
2013-01-20 07:42:00,27.4,25.4,30.22,West,281,0.0,0.0,92,0.00,,---,0.00,VWS V14.01,2013-01-20 15:42:00,
2013-01-20 07:47:00,27.3,25.3,30.22,West,281,0.0,0.0,92,0.00,,---,0.00,VWS V14.01,2013-01-20 15:47:00,
2013-01-20 07:52:00,27.6,25.6,30.22,West,281,0.0,0.0,92,0.00,,---,0.00,VWS V14.01,2013-01-20 15:52:00,
2013-01-20 07:57:00,28.0,26.0,30.22,West,281,0.0,0.0,92,0.00,,---,0.00,VWS V14.01,2013-01-20 15:57:00,
2013-01-20 08:02:00,28.7,26.7,30.22,West,281,0.0,0.0,92,0.00,,---,0.00,VWS V14.01,2013-01-20 16:02:00,
2013-01-20 08:07:00,29.3,27.5,30.23,West,281,0.0,0.0,93,0.00,,---,0.00,VWS V14.01,2013-01-20 16:07:00,
2013-01-20 08:12:00,30.2,28.4,30.22,West,281,0.0,0.0,93,0.00,,---,0.00,VWS V14.01,2013-01-20 16:12:00,
2013-01-20 08:17:00,31.2,29.4,30.22,West,281,0.0,0.0,93,0.00,,---,0.00,VWS V14.01,2013-01-20 16:17:00,
2013-01-20 08:22:00,32.1,30.3,30.22,West,281,0.0,0.0,93,0.00,,---,0.00,VWS V14.01,2013-01-20 16:22:00,
2013-01-20 08:27:00,32.8,31.0,30.23,West,281,0.0,0.0,93,0.00,,---,0.00,VWS V14.01,2013-01-20 16:27:00,
2013-01-20 08:32:00,33.3,31.5,30.22,West,281,0.0,0.0,93,0.00,,---,0.00,VWS V14.01,2013-01-20 16:32:00,
2013-01-20 08:37:00,33.6,31.5,30.23,West,281,0.0,0.0,92,0.00,,---,0.00,VWS V14.01,2013-01-20 16:37:00,
2013-01-20 08:42:00,33.8,31.5,30.23,West,281,0.0,0.0,91,0.00,,---,0.00,VWS V14.01,2013-01-20 16:42:00,
2013-01-20 08:47:00,33.9,31.6,30.23,West,281,0.0,0.0,91,0.00,,---,0.00,VWS V14.01,2013-01-20 16:47:00,
2013-01-20 08:52:00,34.4,32.0,30.23,West,281,0.0,0.0,91,0.00,,---,0.00,VWS V14.01,2013-01-20 16:52:00,
2013-01-20 08:57:00,35.3,32.7,30.23,West,281,0.0,0.0,90,0.00,,---,0.00,VWS V14.01,2013-01-20 16:57:00,
2013-01-20 09:02:00,36.4,33.5,30.23,NNE,18,0.0,0.0,89,0.00,,---,0.00,VWS V14.01,2013-01-20 17:02:00,
2013-01-20 09:07:00,37.4,34.2,30.23,NNE,18,0.0,0.0,88,0.00,,---,0.00,VWS V14.01,2013-01-20 17:07:00,
2013-01-20 09:12:00,38.7,34.9,30.23,NNE,18,0.0,0.0,86,0.00,,---,0.00,VWS V14.01,2013-01-20 17:12:00,
2013-01-20 09:17:00,40.0,35.6,30.23,NNE,18,0.0,0.0,84,0.00,,---,0.00,VWS V14.01,2013-01-20 17:17:00,
2013-01-20 09:22:00,41.1,36.0,30.24,NNE,18,0.0,0.0,82,0.00,,---,0.00,VWS V14.01,2013-01-20 17:22:00,
2013-01-20 09:27:00,42.2,36.2,30.23,NNE,18,0.0,0.0,79,0.00,,---,0.00,VWS V14.01,2013-01-20 17:27:00,
2013-01-20 09:32:00,43.2,36.2,30.23,NNE,18,0.0,0.0,76,0.00,,---,0.00,VWS V14.01,2013-01-20 17:32:00,
2013-01-20 09:37:00,44.2,36.5,30.24,NNE,18,0.0,0.0,74,0.00,,---,0.00,VWS V14.01,2013-01-20 17:37:00,
2013-01-20 09:42:00,44.7,36.2,30.23,NNE,17,0.0,0.0,72,0.00,,---,0.00,VWS V14.01,2013-01-20 17:42:00,
2013-01-20 09:47:00,45.0,35.5,30.24,NNE,17,0.0,0.0,69,0.00,,---,0.00,VWS V14.01,2013-01-20 17:47:00,
2013-01-20 09:52:00,45.7,35.8,30.23,NNE,17,0.0,0.0,68,0.00,,---,0.00,VWS V14.01,2013-01-20 17:52:00,
2013-01-20 09:57:00,46.4,36.0,30.24,NNW,329,0.0,3.0,67,0.00,,---,0.00,VWS V14.01,2013-01-20 17:57:00,
2013-01-20 10:02:00,47.2,36.0,30.23,NW,325,0.0,0.0,65,0.00,,---,0.00,VWS V14.01,2013-01-20 18:02:00,
2013-01-20 10:07:00,48.2,36.6,30.24,NW,324,1.0,2.0,64,0.00,,---,0.00,VWS V14.01,2013-01-20 18:07:00,
2013-01-20 10:12:00,49.3,37.2,30.24,NW,324,0.0,0.0,63,0.00,,---,0.00,VWS V14.01,2013-01-20 18:12:00,
2013-01-20 10:17:00,50.5,36.7,30.24,NW,324,1.0,1.0,59,0.00,,---,0.00,VWS V14.01,2013-01-20 18:17:00,
2013-01-20 10:22:00,51.6,35.5,30.23,WNW,297,0.0,1.0,54,0.00,,---,0.00,VWS V14.01,2013-01-20 18:22:00,
2013-01-20 10:27:00,52.8,35.2,30.23,WNW,302,0.0,5.0,51,0.00,,---,0.00,VWS V14.01,2013-01-20 18:27:00,
2013-01-20 10:32:00,53.8,34.6,30.23,NW,313,1.0,1.0,48,0.00,,---,0.00,VWS V14.01,2013-01-20 18:32:00,
2013-01-20 10:37:00,54.6,33.7,30.23,WNW,302,0.0,4.0,45,0.00,,---,0.00,VWS V14.01,2013-01-20 18:37:00,
2013-01-20 10:42:00,55.5,33.4,30.23,WNW,291,2.0,6.0,43,0.00,,---,0.00,VWS V14.01,2013-01-20 18:42:00,
2013-01-20 10:47:00,56.0,32.0,30.23,WSW,255,1.0,6.0,40,0.00,,---,0.00,VWS V14.01,2013-01-20 18:47:00,
2013-01-20 10:52:00,56.4,31.8,30.22,NW,319,7.0,7.0,39,0.00,,---,0.00,VWS V14.01,2013-01-20 18:52:00,
2013-01-20 10:57:00,56.8,30.8,30.22,SW,225,0.0,7.0,37,0.00,,---,0.00,VWS V14.01,2013-01-20 18:57:00,
2013-01-20 11:02:00,57.1,30.4,30.21,West,263,0.0,5.0,36,0.00,,---,0.00,VWS V14.01,2013-01-20 19:02:00,
2013-01-20 11:07:00,57.4,30.7,30.21,West,263,1.0,5.0,36,0.00,,---,0.00,VWS V14.01,2013-01-20 19:07:00,
2013-01-20 11:12:00,57.7,31.0,30.21,WNW,294,2.0,3.0,36,0.00,,---,0.00,VWS V14.01,2013-01-20 19:12:00,
2013-01-20 11:17:00,57.8,29.6,30.21,NNW,327,2.0,8.0,34,0.00,,---,0.00,VWS V14.01,2013-01-20 19:17:00,
2013-01-20 11:22:00,58.0,29.1,30.20,WSW,245,2.0,3.0,33,0.00,,---,0.00,VWS V14.01,2013-01-20 19:22:00,
2013-01-20 11:27:00,58.4,29.4,30.20,WNW,292,1.0,11.0,33,0.00,,---,0.00,VWS V14.01,2013-01-20 19:27:00,
2013-01-20 11:32:00,58.6,28.9,30.20,WNW,282,3.0,8.0,32,0.00,,---,0.00,VWS V14.01,2013-01-20 19:32:00,
2013-01-20 11:37:00,58.9,29.1,30.20,WNW,291,6.0,9.0,32,0.00,,---,0.00,VWS V14.01,2013-01-20 19:37:00,
2013-01-20 11:42:00,59.0,28.4,30.20,NNW,341,3.0,6.0,31,0.00,,---,0.00,VWS V14.01,2013-01-20 19:42:00,
2013-01-20 11:47:00,59.0,28.4,30.20,WSW,252,6.0,9.0,31,0.00,,---,0.00,VWS V14.01,2013-01-20 19:47:00,
2013-01-20 11:52:00,59.0,29.2,30.20,WNW,303,7.0,7.0,32,0.00,,---,0.00,VWS V14.01,2013-01-20 19:52:00,
2013-01-20 11:57:00,59.0,29.2,30.19,SW,227,1.0,9.0,32,0.00,,---,0.00,VWS V14.01,2013-01-20 19:57:00,
2013-01-20 12:02:00,59.0,29.2,30.19,NW,319,0.0,0.0,32,0.00,,---,0.00,VWS V14.01,2013-01-20 20:02:00,
2013-01-20 12:07:00,59.0,29.2,30.18,WSW,246,2.0,10.0,32,0.00,,---,0.00,VWS V14.01,2013-01-20 20:07:00,
2013-01-20 12:12:00,59.0,29.2,30.18,NW,323,3.0,5.0,32,0.00,,---,0.00,VWS V14.01,2013-01-20 20:12:00,
2013-01-20 12:17:00,59.0,30.0,30.18,West,275,1.0,5.0,33,0.00,,---,0.00,VWS V14.01,2013-01-20 20:17:00,
2013-01-20 12:22:00,59.3,29.5,30.18,NW,308,0.0,4.0,32,0.00,,---,0.00,VWS V14.01,2013-01-20 20:22:00,
2013-01-20 12:27:00,59.5,29.6,30.17,WNW,298,2.0,6.0,32,0.00,,---,0.00,VWS V14.01,2013-01-20 20:27:00,
2013-01-20 12:32:00,59.7,29.8,30.17,West,266,3.0,3.0,32,0.00,,---,0.00,VWS V14.01,2013-01-20 20:32:00,
2013-01-20 12:37:00,59.8,29.1,30.17,WSW,248,3.0,9.0,31,0.00,,---,0.00,VWS V14.01,2013-01-20 20:37:00,
2013-01-20 12:42:00,59.6,29.7,30.16,NNW,329,3.0,4.0,32,0.00,,---,0.00,VWS V14.01,2013-01-20 20:42:00,
2013-01-20 12:47:00,59.9,29.2,30.16,NW,323,2.0,5.0,31,0.00,,---,0.00,VWS V14.01,2013-01-20 20:47:00,
2013-01-20 12:52:00,60.0,29.3,30.16,WNW,296,4.0,5.0,31,0.00,,---,0.00,VWS V14.01,2013-01-20 20:52:00,
2013-01-20 12:57:00,60.0,30.1,30.16,WSW,237,6.0,6.0,32,0.00,,---,0.00,VWS V14.01,2013-01-20 20:57:00,
2013-01-20 13:02:00,60.1,30.2,30.16,NW,314,3.0,3.0,32,0.00,,---,0.00,VWS V14.01,2013-01-20 21:02:00,
2013-01-20 13:07:00,60.2,30.2,30.16,West,259,0.0,7.0,32,0.00,,---,0.00,VWS V14.01,2013-01-20 21:07:00,
2013-01-20 13:12:00,60.3,29.6,30.15,WSW,246,2.0,6.0,31,0.00,,---,0.00,VWS V14.01,2013-01-20 21:12:00,
2013-01-20 13:17:00,60.4,30.4,30.15,WSW,252,0.0,8.0,32,0.00,,---,0.00,VWS V14.01,2013-01-20 21:17:00,
2013-01-20 13:22:00,60.5,30.5,30.15,WSW,239,3.0,6.0,32,0.00,,---,0.00,VWS V14.01,2013-01-20 21:22:00,
2013-01-20 13:27:00,60.6,30.6,30.15,SW,225,1.0,6.0,32,0.00,,---,0.00,VWS V14.01,2013-01-20 21:27:00,
2013-01-20 13:32:00,60.9,31.6,30.15,SSW,202,1.0,2.0,33,0.00,,---,0.00,VWS V14.01,2013-01-20 21:32:00,
2013-01-20 13:37:00,61.2,31.9,30.14,WNW,295,0.0,7.0,33,0.00,,---,0.00,VWS V14.01,2013-01-20 21:37:00,
2013-01-20 13:42:00,61.3,32.0,30.14,West,261,8.0,8.0,33,0.00,,---,0.00,VWS V14.01,2013-01-20 21:42:00,
2013-01-20 13:47:00,61.3,32.0,30.14,WNW,298,5.0,8.0,33,0.00,,---,0.00,VWS V14.01,2013-01-20 21:47:00,
2013-01-20 13:52:00,61.2,32.6,30.14,WSW,252,1.0,1.0,34,0.00,,---,0.00,VWS V14.01,2013-01-20 21:52:00,
2013-01-20 13:57:00,61.4,32.8,30.14,WSW,242,0.0,6.0,34,0.00,,---,0.00,VWS V14.01,2013-01-20 21:57:00,
2013-01-20 14:02:00,61.4,32.8,30.14,West,275,3.0,4.0,34,0.00,,---,0.00,VWS V14.01,2013-01-20 22:02:00,
2013-01-20 14:07:00,61.4,33.5,30.13,West,277,2.0,5.0,35,0.00,,---,0.00,VWS V14.01,2013-01-20 22:07:00,
2013-01-20 14:12:00,61.4,33.5,30.13,SW,218,0.0,4.0,35,0.00,,---,0.00,VWS V14.01,2013-01-20 22:12:00,
2013-01-20 14:17:00,61.5,34.3,30.13,NW,305,2.0,5.0,36,0.00,,---,0.00,VWS V14.01,2013-01-20 22:17:00,
2013-01-20 14:22:00,61.6,35.1,30.13,SW,217,0.0,4.0,37,0.00,,---,0.00,VWS V14.01,2013-01-20 22:22:00,
2013-01-20 14:27:00,61.7,34.5,30.12,SW,227,2.0,4.0,36,0.00,,---,0.00,VWS V14.01,2013-01-20 22:27:00,
2013-01-20 14:32:00,61.6,35.1,30.12,South,180,2.0,6.0,37,0.00,,---,0.00,VWS V14.01,2013-01-20 22:32:00,
2013-01-20 14:37:00,61.6,35.8,30.12,SW,236,2.0,6.0,38,0.00,,---,0.00,VWS V14.01,2013-01-20 22:37:00,
2013-01-20 14:42:00,61.4,35.6,30.12,West,259,0.0,3.0,38,0.00,,---,0.00,VWS V14.01,2013-01-20 22:42:00,
2013-01-20 14:47:00,61.3,36.2,30.12,West,277,2.0,3.0,39,0.00,,---,0.00,VWS V14.01,2013-01-20 22:47:00,
2013-01-20 14:52:00,61.3,36.2,30.12,West,273,1.0,4.0,39,0.00,,---,0.00,VWS V14.01,2013-01-20 22:52:00,
2013-01-20 14:57:00,61.3,36.2,30.13,West,264,1.0,5.0,39,0.00,,---,0.00,VWS V14.01,2013-01-20 22:57:00,
2013-01-20 15:02:00,61.2,36.1,30.13,WSW,240,1.0,5.0,39,0.00,,---,0.00,VWS V14.01,2013-01-20 23:02:00,
2013-01-20 15:07:00,61.2,36.1,30.13,West,262,0.0,5.0,39,0.00,,---,0.00,VWS V14.01,2013-01-20 23:07:00,
2013-01-20 15:12:00,61.1,36.0,30.13,West,263,2.0,2.0,39,0.00,,---,0.00,VWS V14.01,2013-01-20 23:12:00,
2013-01-20 15:17:00,61.1,36.0,30.13,West,266,0.0,5.0,39,0.00,,---,0.00,VWS V14.01,2013-01-20 23:17:00,
2013-01-20 15:22:00,60.9,35.8,30.13,West,269,2.0,2.0,39,0.00,,---,0.00,VWS V14.01,2013-01-20 23:22:00,
2013-01-20 15:27:00,60.7,35.6,30.14,WSW,254,0.0,4.0,39,0.00,,---,0.00,VWS V14.01,2013-01-20 23:27:00,
2013-01-20 15:32:00,60.6,35.5,30.14,West,261,0.0,4.0,39,0.00,,---,0.00,VWS V14.01,2013-01-20 23:32:00,
2013-01-20 15:37:00,60.4,35.3,30.14,West,265,0.0,4.0,39,0.00,,---,0.00,VWS V14.01,2013-01-20 23:37:00,
2013-01-20 15:42:00,60.3,35.3,30.14,WSW,249,3.0,3.0,39,0.00,,---,0.00,VWS V14.01,2013-01-20 23:42:00,
2013-01-20 15:47:00,60.1,35.7,30.14,WSW,248,1.0,3.0,40,0.00,,---,0.00,VWS V14.01,2013-01-20 23:47:00,
2013-01-20 15:52:00,59.8,35.5,30.14,West,271,3.0,3.0,40,0.00,,---,0.00,VWS V14.01,2013-01-20 23:52:00,
2013-01-20 15:58:00,59.4,36.9,30.14,West,271,0.0,3.0,43,0.00,,---,0.00,VWS V14.01,2013-01-20 23:58:00,
2013-01-20 16:03:00,59.0,37.7,30.14,West,271,0.0,0.0,45,0.00,,---,0.00,VWS V14.01,2013-01-21 00:03:00,
2013-01-20 16:08:00,57.7,37.6,30.14,West,271,0.0,0.0,47,0.00,,---,0.00,VWS V14.01,2013-01-21 00:08:00,
2013-01-20 16:12:00,56.3,37.4,30.14,West,271,0.0,0.0,49,0.00,,---,0.00,VWS V14.01,2013-01-21 00:12:00,
2013-01-20 16:18:00,55.1,37.3,30.14,West,271,0.0,0.0,51,0.00,,---,0.00,VWS V14.01,2013-01-21 00:18:00,
2013-01-20 16:23:00,54.2,37.0,30.14,West,271,0.0,0.0,52,0.00,,---,0.00,VWS V14.01,2013-01-21 00:23:00,
2013-01-20 16:28:00,53.4,36.7,30.14,West,271,0.0,0.0,53,0.00,,---,0.00,VWS V14.01,2013-01-21 00:28:00,
2013-01-20 16:33:00,52.6,36.5,30.14,West,271,0.0,0.0,54,0.00,,---,0.00,VWS V14.01,2013-01-21 00:33:00,
2013-01-20 16:38:00,52.0,36.3,30.14,West,271,0.0,0.0,55,0.00,,---,0.00,VWS V14.01,2013-01-21 00:38:00,
2013-01-20 16:43:00,51.5,36.8,30.14,West,271,0.0,0.0,57,0.00,,---,0.00,VWS V14.01,2013-01-21 00:43:00,
2013-01-20 16:48:00,51.1,36.4,30.14,West,271,0.0,0.0,57,0.00,,---,0.00,VWS V14.01,2013-01-21 00:48:00,
2013-01-20 16:53:00,50.7,36.0,30.14,West,271,0.0,0.0,57,0.00,,---,0.00,VWS V14.01,2013-01-21 00:53:00,
2013-01-20 16:58:00,50.4,36.2,30.14,West,271,0.0,0.0,58,0.00,,---,0.00,VWS V14.01,2013-01-21 00:58:00,
2013-01-20 17:03:00,50.1,36.3,30.14,West,271,0.0,0.0,59,0.00,,---,0.00,VWS V14.01,2013-01-21 01:03:00,
2013-01-20 17:08:00,49.7,36.0,30.14,West,271,0.0,0.0,59,0.00,,---,0.00,VWS V14.01,2013-01-21 01:08:00,
2013-01-20 17:13:00,49.3,36.0,30.14,West,271,0.0,0.0,60,0.00,,---,0.00,VWS V14.01,2013-01-21 01:13:00,
2013-01-20 17:18:00,49.0,35.7,30.14,West,271,0.0,0.0,60,0.00,,---,0.00,VWS V14.01,2013-01-21 01:18:00,
2013-01-20 17:23:00,48.6,35.4,30.14,West,271,0.0,0.0,60,0.00,,---,0.00,VWS V14.01,2013-01-21 01:23:00,
2013-01-20 17:28:00,48.2,35.0,30.14,West,271,0.0,0.0,60,0.00,,---,0.00,VWS V14.01,2013-01-21 01:28:00,
2013-01-20 17:33:00,47.9,35.1,30.14,West,271,0.0,0.0,61,0.00,,---,0.00,VWS V14.01,2013-01-21 01:33:00,
2013-01-20 17:38:00,47.6,35.2,30.14,West,271,0.0,0.0,62,0.00,,---,0.00,VWS V14.01,2013-01-21 01:38:00,
2013-01-20 17:43:00,47.2,35.3,30.14,West,271,0.0,0.0,63,0.00,,---,0.00,VWS V14.01,2013-01-21 01:43:00,
2013-01-20 17:48:00,46.8,35.3,30.14,West,271,0.0,0.0,64,0.00,,---,0.00,VWS V14.01,2013-01-21 01:48:00,
2013-01-20 17:53:00,46.6,34.7,30.14,West,271,0.0,0.0,63,0.00,,---,0.00,VWS V14.01,2013-01-21 01:53:00,
2013-01-20 17:58:00,46.4,34.5,30.14,West,271,0.0,0.0,63,0.00,,---,0.00,VWS V14.01,2013-01-21 01:58:00,
2013-01-20 18:03:00,46.3,34.8,30.14,West,271,0.0,1.0,64,0.00,,---,0.00,VWS V14.01,2013-01-21 02:03:00,
2013-01-20 18:08:00,46.1,34.6,30.14,West,271,0.0,1.0,64,0.00,,---,0.00,VWS V14.01,2013-01-21 02:08:00,
2013-01-20 18:13:00,45.8,34.7,30.15,West,271,0.0,0.0,65,0.00,,---,0.00,VWS V14.01,2013-01-21 02:13:00,
2013-01-20 18:18:00,45.5,34.4,30.15,West,271,0.0,0.0,65,0.00,,---,0.00,VWS V14.01,2013-01-21 02:18:00,
2013-01-20 18:23:00,45.2,34.5,30.15,West,271,0.0,0.0,66,0.00,,---,0.00,VWS V14.01,2013-01-21 02:23:00,
2013-01-20 18:28:00,45.0,34.3,30.15,West,271,0.0,0.0,66,0.00,,---,0.00,VWS V14.01,2013-01-21 02:28:00,
2013-01-20 18:33:00,44.6,34.3,30.15,West,271,0.0,0.0,67,0.00,,---,0.00,VWS V14.01,2013-01-21 02:33:00,
2013-01-20 18:38:00,44.4,34.1,30.16,West,271,0.0,0.0,67,0.00,,---,0.00,VWS V14.01,2013-01-21 02:38:00,
2013-01-20 18:43:00,44.1,34.2,30.16,West,271,0.0,0.0,68,0.00,,---,0.00,VWS V14.01,2013-01-21 02:43:00,
2013-01-20 18:48:00,43.8,34.3,30.16,West,271,0.0,0.0,69,0.00,,---,0.00,VWS V14.01,2013-01-21 02:48:00,
2013-01-20 18:53:00,43.5,34.0,30.16,West,271,0.0,0.0,69,0.00,,---,0.00,VWS V14.01,2013-01-21 02:53:00,
2013-01-20 18:58:00,43.3,34.2,30.16,West,271,0.0,0.0,70,0.00,,---,0.00,VWS V14.01,2013-01-21 02:58:00,
2013-01-20 19:03:00,43.1,34.0,30.16,West,271,0.0,0.0,70,0.00,,---,0.00,VWS V14.01,2013-01-21 03:03:00,
2013-01-20 19:08:00,43.0,33.9,30.16,West,271,0.0,0.0,70,0.00,,---,0.00,VWS V14.01,2013-01-21 03:08:00,
2013-01-20 19:13:00,42.8,34.1,30.16,West,271,0.0,0.0,71,0.00,,---,0.00,VWS V14.01,2013-01-21 03:13:00,
2013-01-20 19:18:00,42.6,33.9,30.16,West,271,0.0,0.0,71,0.00,,---,0.00,VWS V14.01,2013-01-21 03:18:00,
2013-01-20 19:23:00,42.5,33.8,30.17,West,271,0.0,0.0,71,0.00,,---,0.00,VWS V14.01,2013-01-21 03:23:00,
2013-01-20 19:28:00,42.3,33.9,30.17,West,271,0.0,0.0,72,0.00,,---,0.00,VWS V14.01,2013-01-21 03:28:00,
2013-01-20 19:33:00,42.1,33.7,30.16,West,271,0.0,0.0,72,0.00,,---,0.00,VWS V14.01,2013-01-21 03:33:00,
2013-01-20 19:38:00,41.9,33.5,30.17,West,271,0.0,0.0,72,0.00,,---,0.00,VWS V14.01,2013-01-21 03:38:00,
2013-01-20 19:43:00,41.7,33.7,30.17,West,271,0.0,0.0,73,0.00,,---,0.00,VWS V14.01,2013-01-21 03:43:00,
2013-01-20 19:48:00,41.5,33.5,30.17,West,271,0.0,0.0,73,0.00,,---,0.00,VWS V14.01,2013-01-21 03:48:00,
2013-01-20 19:53:00,41.3,33.3,30.17,West,271,0.0,0.0,73,0.00,,---,0.00,VWS V14.01,2013-01-21 03:53:00,
2013-01-20 19:58:00,41.1,33.5,30.17,West,271,0.0,0.0,74,0.00,,---,0.00,VWS V14.01,2013-01-21 03:58:00,
2013-01-20 20:03:00,40.9,33.6,30.17,West,271,0.0,0.0,75,0.00,,---,0.00,VWS V14.01,2013-01-21 04:03:00,
2013-01-20 20:08:00,40.8,33.5,30.17,West,271,0.0,0.0,75,0.00,,---,0.00,VWS V14.01,2013-01-21 04:08:00,
2013-01-20 20:13:00,40.5,33.2,30.17,West,271,0.0,0.0,75,0.00,,---,0.00,VWS V14.01,2013-01-21 04:13:00,
2013-01-20 20:18:00,40.2,33.2,30.17,West,271,0.0,0.0,76,0.00,,---,0.00,VWS V14.01,2013-01-21 04:18:00,
2013-01-20 20:23:00,39.9,33.0,30.17,West,271,0.0,0.0,76,0.00,,---,0.00,VWS V14.01,2013-01-21 04:23:00,
2013-01-20 20:28:00,39.7,33.1,30.17,West,271,0.0,0.0,77,0.00,,---,0.00,VWS V14.01,2013-01-21 04:28:00,
2013-01-20 20:33:00,39.4,32.8,30.17,West,271,0.0,0.0,77,0.00,,---,0.00,VWS V14.01,2013-01-21 04:33:00,
2013-01-20 20:38:00,39.2,32.6,30.17,West,271,0.0,0.0,77,0.00,,---,0.00,VWS V14.01,2013-01-21 04:38:00,
2013-01-20 20:43:00,39.0,32.4,30.17,West,271,0.0,0.0,77,0.00,,---,0.00,VWS V14.01,2013-01-21 04:43:00,
2013-01-20 20:48:00,38.9,32.6,30.17,West,271,0.0,0.0,78,0.00,,---,0.00,VWS V14.01,2013-01-21 04:48:00,
2013-01-20 20:53:00,38.8,32.5,30.17,West,271,0.0,0.0,78,0.00,,---,0.00,VWS V14.01,2013-01-21 04:53:00,
2013-01-20 20:58:00,38.6,32.3,30.17,West,271,0.0,0.0,78,0.00,,---,0.00,VWS V14.01,2013-01-21 04:58:00,
2013-01-20 21:00:00,38.6,32.3,30.17,West,271,0.0,0.0,78,0.00,,---,0.00,VWS V14.01,2013-01-21 05:00:00,
2013-01-20 21:01:00,38.5,32.2,30.17,West,271,0.0,0.0,78,0.00,,---,0.00,VWS V14.01,2013-01-21 05:01:00,
2013-01-20 21:03:00,38.4,32.2,30.17,West,271,0.0,0.0,78,0.00,,---,0.00,VWS V14.01,2013-01-21 05:03:00,
2013-01-20 21:08:00,38.2,32.3,30.17,West,271,0.0,0.0,79,0.00,,---,0.00,VWS V14.01,2013-01-21 05:08:00,
2013-01-20 21:13:00,38.0,32.4,30.17,West,271,0.0,0.0,80,0.00,,---,0.00,VWS V14.01,2013-01-21 05:13:00,
2013-01-20 21:18:00,37.9,32.3,30.16,West,271,0.0,0.0,80,0.00,,---,0.00,VWS V14.01,2013-01-21 05:18:00,
2013-01-20 21:23:00,37.7,32.1,30.17,West,271,0.0,0.0,80,0.00,,---,0.00,VWS V14.01,2013-01-21 05:23:00,
2013-01-20 21:28:00,37.5,31.9,30.17,West,271,0.0,0.0,80,0.00,,---,0.00,VWS V14.01,2013-01-21 05:28:00,
2013-01-20 21:33:00,37.3,32.0,30.17,West,271,0.0,0.0,81,0.00,,---,0.00,VWS V14.01,2013-01-21 05:33:00,
2013-01-20 21:38:00,37.1,31.8,30.18,West,271,0.0,0.0,81,0.00,,---,0.00,VWS V14.01,2013-01-21 05:38:00,
2013-01-20 21:43:00,37.0,31.7,30.18,West,271,0.0,0.0,81,0.00,,---,0.00,VWS V14.01,2013-01-21 05:43:00,
2013-01-20 21:48:00,36.8,31.8,30.18,West,271,0.0,0.0,82,0.00,,---,0.00,VWS V14.01,2013-01-21 05:48:00,
2013-01-20 21:53:00,36.7,31.7,30.18,West,271,0.0,0.0,82,0.00,,---,0.00,VWS V14.01,2013-01-21 05:53:00,
2013-01-20 21:58:00,36.6,31.6,30.18,West,271,0.0,0.0,82,0.00,,---,0.00,VWS V14.01,2013-01-21 05:58:00,
2013-01-20 22:03:00,36.5,31.5,30.18,West,271,0.0,0.0,82,0.00,,---,0.00,VWS V14.01,2013-01-21 06:03:00,
2013-01-20 22:08:00,36.4,31.4,30.18,West,271,0.0,0.0,82,0.00,,---,0.00,VWS V14.01,2013-01-21 06:08:00,
2013-01-20 22:13:00,36.3,31.3,30.18,West,271,0.0,0.0,82,0.00,,---,0.00,VWS V14.01,2013-01-21 06:13:00,
2013-01-20 22:18:00,36.2,31.2,30.18,West,271,0.0,0.0,82,0.00,,---,0.00,VWS V14.01,2013-01-21 06:18:00,
2013-01-20 22:23:00,36.1,31.5,30.18,West,271,0.0,0.0,83,0.00,,---,0.00,VWS V14.01,2013-01-21 06:23:00,
2013-01-20 22:28:00,35.9,31.2,30.18,West,271,0.0,0.0,83,0.00,,---,0.00,VWS V14.01,2013-01-21 06:28:00,
2013-01-20 22:33:00,35.7,31.0,30.18,West,271,0.0,0.0,83,0.00,,---,0.00,VWS V14.01,2013-01-21 06:33:00,
2013-01-20 22:38:00,35.5,30.9,30.18,West,271,0.0,0.0,83,0.00,,---,0.00,VWS V14.01,2013-01-21 06:38:00,
2013-01-20 22:43:00,35.3,31.0,30.18,West,271,0.0,0.0,84,0.00,,---,0.00,VWS V14.01,2013-01-21 06:43:00,
2013-01-20 22:48:00,35.1,30.8,30.18,West,271,0.0,0.0,84,0.00,,---,0.00,VWS V14.01,2013-01-21 06:48:00,
2013-01-20 22:53:00,34.9,30.6,30.18,West,271,0.0,0.0,84,0.00,,---,0.00,VWS V14.01,2013-01-21 06:53:00,
2013-01-20 22:58:00,34.6,30.3,30.18,West,271,0.0,0.0,84,0.00,,---,0.00,VWS V14.01,2013-01-21 06:58:00,
2013-01-20 23:03:00,34.4,30.4,30.18,West,271,0.0,0.0,85,0.00,,---,0.00,VWS V14.01,2013-01-21 07:03:00,
2013-01-20 23:08:00,34.4,30.4,30.18,West,271,0.0,0.0,85,0.00,,---,0.00,VWS V14.01,2013-01-21 07:08:00,
2013-01-20 23:13:00,34.1,30.1,30.18,West,271,0.0,0.0,85,0.00,,---,0.00,VWS V14.01,2013-01-21 07:13:00,
2013-01-20 23:18:00,33.8,29.8,30.18,West,271,0.0,0.0,85,0.00,,---,0.00,VWS V14.01,2013-01-21 07:18:00,
2013-01-20 23:23:00,33.7,30.0,30.18,West,271,0.0,0.0,86,0.00,,---,0.00,VWS V14.01,2013-01-21 07:23:00,
2013-01-20 23:28:00,33.5,29.8,30.17,West,271,0.0,0.0,86,0.00,,---,0.00,VWS V14.01,2013-01-21 07:28:00,
2013-01-20 23:33:00,33.4,29.7,30.17,West,271,0.0,0.0,86,0.00,,---,0.00,VWS V14.01,2013-01-21 07:33:00,
2013-01-20 23:38:00,33.2,29.5,30.17,West,271,0.0,0.0,86,0.00,,---,0.00,VWS V14.01,2013-01-21 07:38:00,
2013-01-20 23:43:00,33.1,29.7,30.17,West,271,0.0,0.0,87,0.00,,---,0.00,VWS V14.01,2013-01-21 07:43:00,
2013-01-20 23:48:00,32.9,29.5,30.17,West,271,0.0,0.0,87,0.00,,---,0.00,VWS V14.01,2013-01-21 07:48:00,
2013-01-20 23:53:00,32.9,29.5,30.17,West,271,0.0,0.0,87,0.00,,---,0.00,VWS V14.01,2013-01-21 07:53:00,
2013-01-20 23:58:00,32.8,29.4,30.17,West,271,0.0,0.0,87,0.00,,---,0.00,VWS V14.01,2013-01-21 07:58:00,